sensor_id;sensor_type;location;lat;lon;timestamp;temperature;humidity
71523;HTU21D;59343;51.102;5.884;2023-03-17T00:00:35;10.40;61.31
71523;HTU21D;59343;51.102;5.884;2023-03-17T00:03:01;10.39;61.38
71523;HTU21D;59343;51.102;5.884;2023-03-17T00:05:33;10.36;61.41
71523;HTU21D;59343;51.102;5.884;2023-03-17T00:08:22;10.34;61.57
71523;HTU21D;59343;51.102;5.884;2023-03-17T00:10:49;10.33;61.63
71523;HTU21D;59343;51.102;5.884;2023-03-17T00:13:16;10.35;61.53
71523;HTU21D;59343;51.102;5.884;2023-03-17T00:15:43;10.37;61.36
71523;HTU21D;59343;51.102;5.884;2023-03-17T00:18:16;10.36;61.34
71523;HTU21D;59343;51.102;5.884;2023-03-17T00:20:44;10.38;61.28
71523;HTU21D;59343;51.102;5.884;2023-03-17T00:23:18;10.40;61.02
71523;HTU21D;59343;51.102;5.884;2023-03-17T00:25:44;10.40;61.00
71523;HTU21D;59343;51.102;5.884;2023-03-17T00:28:20;10.38;61.06
71523;HTU21D;59343;51.102;5.884;2023-03-17T00:30:48;10.36;61.11
71523;HTU21D;59343;51.102;5.884;2023-03-17T00:33:27;10.35;61.21
71523;HTU21D;59343;51.102;5.884;2023-03-17T00:35:54;10.34;61.21
71523;HTU21D;59343;51.102;5.884;2023-03-17T00:38:21;10.31;61.08
71523;HTU21D;59343;51.102;5.884;2023-03-17T00:40:50;10.31;60.96
71523;HTU21D;59343;51.102;5.884;2023-03-17T00:43:16;10.30;60.89
71523;HTU21D;59343;51.102;5.884;2023-03-17T00:45:43;10.31;60.81
71523;HTU21D;59343;51.102;5.884;2023-03-17T00:48:16;10.34;60.80
71523;HTU21D;59343;51.102;5.884;2023-03-17T00:50:43;10.36;60.57
71523;HTU21D;59343;51.102;5.884;2023-03-17T00:53:15;10.37;60.35
71523;HTU21D;59343;51.102;5.884;2023-03-17T00:55:43;10.38;60.25
71523;HTU21D;59343;51.102;5.884;2023-03-17T00:58:34;10.36;60.22
71523;HTU21D;59343;51.102;5.884;2023-03-17T01:01:00;10.34;60.34
71523;HTU21D;59343;51.102;5.884;2023-03-17T01:03:27;10.31;60.38
71523;HTU21D;59343;51.102;5.884;2023-03-17T01:05:54;10.30;60.38
71523;HTU21D;59343;51.102;5.884;2023-03-17T01:08:25;10.29;60.54
71523;HTU21D;59343;51.102;5.884;2023-03-17T01:10:51;10.28;60.60
71523;HTU21D;59343;51.102;5.884;2023-03-17T01:13:18;10.26;60.41
71523;HTU21D;59343;51.102;5.884;2023-03-17T01:15:46;10.23;60.38
71523;HTU21D;59343;51.102;5.884;2023-03-17T01:18:15;10.22;60.41
71523;HTU21D;59343;51.102;5.884;2023-03-17T01:20:43;10.20;60.44
71523;HTU21D;59343;51.102;5.884;2023-03-17T01:23:10;10.16;60.57
71523;HTU21D;59343;51.102;5.884;2023-03-17T01:25:38;10.14;60.67
71523;HTU21D;59343;51.102;5.884;2023-03-17T01:28:05;10.11;60.76
71523;HTU21D;59343;51.102;5.884;2023-03-17T01:30:35;10.10;60.83
71523;HTU21D;59343;51.102;5.884;2023-03-17T01:33:02;10.07;60.81
71523;HTU21D;59343;51.102;5.884;2023-03-17T01:35:28;10.06;60.71
71523;HTU21D;59343;51.102;5.884;2023-03-17T01:37:54;10.05;60.64
71523;HTU21D;59343;51.102;5.884;2023-03-17T01:40:24;10.04;60.54
71523;HTU21D;59343;51.102;5.884;2023-03-17T01:43:02;9.99;60.68
71523;HTU21D;59343;51.102;5.884;2023-03-17T01:48:44;9.95;60.54
71523;HTU21D;59343;51.102;5.884;2023-03-17T01:53:53;9.86;60.82
71523;HTU21D;59343;51.102;5.884;2023-03-17T01:56:20;9.84;60.93
71523;HTU21D;59343;51.102;5.884;2023-03-17T01:58:50;9.81;61.10
71523;HTU21D;59343;51.102;5.884;2023-03-17T02:01:18;9.75;61.36
71523;HTU21D;59343;51.102;5.884;2023-03-17T02:03:46;9.70;61.44
71523;HTU21D;59343;51.102;5.884;2023-03-17T02:06:12;9.64;61.56
71523;HTU21D;59343;51.102;5.884;2023-03-17T02:08:38;9.59;61.76
71523;HTU21D;59343;51.102;5.884;2023-03-17T02:11:04;9.53;61.87
71523;HTU21D;59343;51.102;5.884;2023-03-17T02:13:32;9.52;61.96
71523;HTU21D;59343;51.102;5.884;2023-03-17T02:15:59;9.50;62.01
71523;HTU21D;59343;51.102;5.884;2023-03-17T02:18:26;9.49;62.02
71523;HTU21D;59343;51.102;5.884;2023-03-17T02:21:26;9.48;62.11
71523;HTU21D;59343;51.102;5.884;2023-03-17T02:23:52;9.47;62.17
71523;HTU21D;59343;51.102;5.884;2023-03-17T02:26:20;9.46;62.25
71523;HTU21D;59343;51.102;5.884;2023-03-17T02:28:47;9.45;62.23
71523;HTU21D;59343;51.102;5.884;2023-03-17T02:31:13;9.41;62.37
71523;HTU21D;59343;51.102;5.884;2023-03-17T02:33:40;9.40;62.40
71523;HTU21D;59343;51.102;5.884;2023-03-17T02:36:09;9.38;62.42
71523;HTU21D;59343;51.102;5.884;2023-03-17T02:38:36;9.36;62.50
71523;HTU21D;59343;51.102;5.884;2023-03-17T02:41:02;9.33;62.62
71523;HTU21D;59343;51.102;5.884;2023-03-17T02:43:28;9.31;62.70
71523;HTU21D;59343;51.102;5.884;2023-03-17T02:45:55;9.26;62.96
71523;HTU21D;59343;51.102;5.884;2023-03-17T02:48:21;9.24;63.05
71523;HTU21D;59343;51.102;5.884;2023-03-17T02:50:48;9.20;63.36
71523;HTU21D;59343;51.102;5.884;2023-03-17T02:53:16;9.16;63.61
71523;HTU21D;59343;51.102;5.884;2023-03-17T02:55:42;9.11;63.77
71523;HTU21D;59343;51.102;5.884;2023-03-17T02:58:09;9.10;63.98
71523;HTU21D;59343;51.102;5.884;2023-03-17T03:00:35;9.08;64.08
71523;HTU21D;59343;51.102;5.884;2023-03-17T03:03:01;9.08;64.24
71523;HTU21D;59343;51.102;5.884;2023-03-17T03:05:27;9.06;64.33
71523;HTU21D;59343;51.102;5.884;2023-03-17T03:07:53;9.06;64.40
71523;HTU21D;59343;51.102;5.884;2023-03-17T03:10:19;9.05;64.50
71523;HTU21D;59343;51.102;5.884;2023-03-17T03:12:45;9.05;64.66
71523;HTU21D;59343;51.102;5.884;2023-03-17T03:15:12;9.06;64.73
71523;HTU21D;59343;51.102;5.884;2023-03-17T03:17:37;9.08;64.79
71523;HTU21D;59343;51.102;5.884;2023-03-17T03:20:04;9.09;64.71
71523;HTU21D;59343;51.102;5.884;2023-03-17T03:22:30;9.12;64.75
71523;HTU21D;59343;51.102;5.884;2023-03-17T03:24:56;9.11;64.85
71523;HTU21D;59343;51.102;5.884;2023-03-17T03:27:22;9.09;64.96
71523;HTU21D;59343;51.102;5.884;2023-03-17T03:29:48;9.09;65.11
71523;HTU21D;59343;51.102;5.884;2023-03-17T03:32:13;9.05;65.28
71523;HTU21D;59343;51.102;5.884;2023-03-17T03:34:39;9.04;65.33
71523;HTU21D;59343;51.102;5.884;2023-03-17T03:37:05;9.03;65.40
71523;HTU21D;59343;51.102;5.884;2023-03-17T03:39:32;9.02;65.42
71523;HTU21D;59343;51.102;5.884;2023-03-17T03:41:58;9.03;65.70
71523;HTU21D;59343;51.102;5.884;2023-03-17T03:44:24;9.00;65.78
71523;HTU21D;59343;51.102;5.884;2023-03-17T03:46:50;8.98;65.78
71523;HTU21D;59343;51.102;5.884;2023-03-17T03:49:16;8.97;65.88
71523;HTU21D;59343;51.102;5.884;2023-03-17T03:51:42;8.95;66.10
71523;HTU21D;59343;51.102;5.884;2023-03-17T03:54:08;8.94;66.20
71523;HTU21D;59343;51.102;5.884;2023-03-17T03:56:34;8.93;66.24
71523;HTU21D;59343;51.102;5.884;2023-03-17T03:59:00;8.91;66.43
71523;HTU21D;59343;51.102;5.884;2023-03-17T04:01:26;8.90;66.51
71523;HTU21D;59343;51.102;5.884;2023-03-17T04:03:52;8.89;66.61
71523;HTU21D;59343;51.102;5.884;2023-03-17T04:06:20;8.86;66.72
71523;HTU21D;59343;51.102;5.884;2023-03-17T04:08:46;8.81;66.97
71523;HTU21D;59343;51.102;5.884;2023-03-17T04:11:12;8.80;67.16
71523;HTU21D;59343;51.102;5.884;2023-03-17T04:13:38;8.78;67.20
71523;HTU21D;59343;51.102;5.884;2023-03-17T04:16:04;8.79;67.27
71523;HTU21D;59343;51.102;5.884;2023-03-17T04:18:30;8.80;67.35
71523;HTU21D;59343;51.102;5.884;2023-03-17T04:20:56;8.79;67.39
71523;HTU21D;59343;51.102;5.884;2023-03-17T04:23:22;8.82;67.34
71523;HTU21D;59343;51.102;5.884;2023-03-17T04:25:51;8.79;67.33
71523;HTU21D;59343;51.102;5.884;2023-03-17T04:28:17;8.77;67.33
71523;HTU21D;59343;51.102;5.884;2023-03-17T04:30:44;8.74;67.40
71523;HTU21D;59343;51.102;5.884;2023-03-17T04:33:10;8.74;67.49
71523;HTU21D;59343;51.102;5.884;2023-03-17T04:35:36;8.75;67.58
71523;HTU21D;59343;51.102;5.884;2023-03-17T04:38:02;8.75;67.49
71523;HTU21D;59343;51.102;5.884;2023-03-17T04:40:28;8.76;67.39
71523;HTU21D;59343;51.102;5.884;2023-03-17T04:42:54;8.75;67.43
71523;HTU21D;59343;51.102;5.884;2023-03-17T04:45:20;8.77;67.33
71523;HTU21D;59343;51.102;5.884;2023-03-17T04:47:46;8.76;67.42
71523;HTU21D;59343;51.102;5.884;2023-03-17T04:50:13;8.74;67.55
71523;HTU21D;59343;51.102;5.884;2023-03-17T04:52:39;8.74;67.48
71523;HTU21D;59343;51.102;5.884;2023-03-17T04:55:06;8.76;67.43
71523;HTU21D;59343;51.102;5.884;2023-03-17T04:57:33;8.75;67.41
71523;HTU21D;59343;51.102;5.884;2023-03-17T04:59:59;8.74;67.49
71523;HTU21D;59343;51.102;5.884;2023-03-17T05:02:25;8.73;67.50
71523;HTU21D;59343;51.102;5.884;2023-03-17T05:04:51;8.71;67.68
71523;HTU21D;59343;51.102;5.884;2023-03-17T05:07:17;8.70;67.77
71523;HTU21D;59343;51.102;5.884;2023-03-17T05:09:42;8.70;67.78
71523;HTU21D;59343;51.102;5.884;2023-03-17T05:12:09;8.67;67.75
71523;HTU21D;59343;51.102;5.884;2023-03-17T05:14:36;8.66;67.86
71523;HTU21D;59343;51.102;5.884;2023-03-17T05:17:02;8.67;67.84
71523;HTU21D;59343;51.102;5.884;2023-03-17T05:19:27;8.65;67.88
71523;HTU21D;59343;51.102;5.884;2023-03-17T05:21:53;8.62;67.98
71523;HTU21D;59343;51.102;5.884;2023-03-17T05:24:19;8.62;68.10
71523;HTU21D;59343;51.102;5.884;2023-03-17T05:26:45;8.61;68.15
71523;HTU21D;59343;51.102;5.884;2023-03-17T05:29:11;8.60;68.25
71523;HTU21D;59343;51.102;5.884;2023-03-17T05:31:37;8.59;68.28
71523;HTU21D;59343;51.102;5.884;2023-03-17T05:34:03;8.58;68.19
71523;HTU21D;59343;51.102;5.884;2023-03-17T05:36:30;8.58;68.16
71523;HTU21D;59343;51.102;5.884;2023-03-17T05:38:56;8.55;68.33
71523;HTU21D;59343;51.102;5.884;2023-03-17T05:41:22;8.51;68.46
71523;HTU21D;59343;51.102;5.884;2023-03-17T05:43:48;8.50;68.48
71523;HTU21D;59343;51.102;5.884;2023-03-17T05:46:15;8.49;68.55
71523;HTU21D;59343;51.102;5.884;2023-03-17T05:48:40;8.48;68.66
71523;HTU21D;59343;51.102;5.884;2023-03-17T05:51:06;8.49;68.62
71523;HTU21D;59343;51.102;5.884;2023-03-17T05:53:33;8.50;68.61
71523;HTU21D;59343;51.102;5.884;2023-03-17T05:56:00;8.50;68.68
71523;HTU21D;59343;51.102;5.884;2023-03-17T05:58:26;8.49;68.71
71523;HTU21D;59343;51.102;5.884;2023-03-17T06:00:52;8.48;68.77
71523;HTU21D;59343;51.102;5.884;2023-03-17T06:03:18;8.48;68.81
71523;HTU21D;59343;51.102;5.884;2023-03-17T06:05:44;8.49;68.81
71523;HTU21D;59343;51.102;5.884;2023-03-17T06:08:10;8.50;68.87
71523;HTU21D;59343;51.102;5.884;2023-03-17T06:10:36;8.53;68.81
71523;HTU21D;59343;51.102;5.884;2023-03-17T06:13:02;8.55;68.76
71523;HTU21D;59343;51.102;5.884;2023-03-17T06:15:29;8.57;68.79
71523;HTU21D;59343;51.102;5.884;2023-03-17T06:17:55;8.60;68.82
71523;HTU21D;59343;51.102;5.884;2023-03-17T06:20:21;8.62;68.72
71523;HTU21D;59343;51.102;5.884;2023-03-17T06:22:50;8.63;68.66
71523;HTU21D;59343;51.102;5.884;2023-03-17T06:25:16;8.64;68.73
71523;HTU21D;59343;51.102;5.884;2023-03-17T06:27:43;8.67;68.78
71523;HTU21D;59343;51.102;5.884;2023-03-17T06:30:10;8.72;68.79
71523;HTU21D;59343;51.102;5.884;2023-03-17T06:32:37;8.78;68.65
71523;HTU21D;59343;51.102;5.884;2023-03-17T06:35:03;8.81;68.54
71523;HTU21D;59343;51.102;5.884;2023-03-17T06:37:30;8.86;68.46
71523;HTU21D;59343;51.102;5.884;2023-03-17T06:39:56;8.90;68.34
71523;HTU21D;59343;51.102;5.884;2023-03-17T06:42:23;8.97;68.20
71523;HTU21D;59343;51.102;5.884;2023-03-17T06:44:49;9.05;68.11
71523;HTU21D;59343;51.102;5.884;2023-03-17T06:47:18;9.14;67.97
71523;HTU21D;59343;51.102;5.884;2023-03-17T06:49:44;9.19;67.83
71523;HTU21D;59343;51.102;5.884;2023-03-17T06:52:10;9.23;67.72
71523;HTU21D;59343;51.102;5.884;2023-03-17T06:54:38;9.29;67.66
71523;HTU21D;59343;51.102;5.884;2023-03-17T06:57:04;9.33;67.44
71523;HTU21D;59343;51.102;5.884;2023-03-17T06:59:30;9.39;67.42
71523;HTU21D;59343;51.102;5.884;2023-03-17T07:01:56;9.46;67.23
71523;HTU21D;59343;51.102;5.884;2023-03-17T07:04:23;9.53;67.19
71523;HTU21D;59343;51.102;5.884;2023-03-17T07:06:49;9.59;66.94
71523;HTU21D;59343;51.102;5.884;2023-03-17T07:09:16;9.68;66.84
71523;HTU21D;59343;51.102;5.884;2023-03-17T07:11:42;9.77;66.82
71523;HTU21D;59343;51.102;5.884;2023-03-17T07:14:08;9.88;66.47
71523;HTU21D;59343;51.102;5.884;2023-03-17T07:16:34;9.99;66.26
71523;HTU21D;59343;51.102;5.884;2023-03-17T07:19:00;10.07;66.05
71523;HTU21D;59343;51.102;5.884;2023-03-17T07:21:27;10.12;66.00
71523;HTU21D;59343;51.102;5.884;2023-03-17T07:23:56;10.20;65.88
71523;HTU21D;59343;51.102;5.884;2023-03-17T07:26:22;10.25;65.75
71523;HTU21D;59343;51.102;5.884;2023-03-17T07:28:48;10.31;65.74
71523;HTU21D;59343;51.102;5.884;2023-03-17T07:31:14;10.37;65.72
71523;HTU21D;59343;51.102;5.884;2023-03-17T07:33:40;10.41;65.47
71523;HTU21D;59343;51.102;5.884;2023-03-17T07:36:07;10.45;65.36
71523;HTU21D;59343;51.102;5.884;2023-03-17T07:38:35;10.49;65.41
71523;HTU21D;59343;51.102;5.884;2023-03-17T07:41:02;10.53;65.45
71523;HTU21D;59343;51.102;5.884;2023-03-17T07:43:29;10.56;65.52
71523;HTU21D;59343;51.102;5.884;2023-03-17T07:45:56;10.63;65.51
71523;HTU21D;59343;51.102;5.884;2023-03-17T07:48:23;10.71;65.41
71523;HTU21D;59343;51.102;5.884;2023-03-17T07:50:50;10.82;65.27
71523;HTU21D;59343;51.102;5.884;2023-03-17T07:53:16;10.90;65.08
71523;HTU21D;59343;51.102;5.884;2023-03-17T07:55:42;10.98;64.95
71523;HTU21D;59343;51.102;5.884;2023-03-17T07:58:08;11.05;64.85
71523;HTU21D;59343;51.102;5.884;2023-03-17T08:00:35;11.15;64.74
71523;HTU21D;59343;51.102;5.884;2023-03-17T08:03:01;11.25;64.69
71523;HTU21D;59343;51.102;5.884;2023-03-17T08:05:27;11.34;64.72
71523;HTU21D;59343;51.102;5.884;2023-03-17T08:07:55;11.43;64.61
71523;HTU21D;59343;51.102;5.884;2023-03-17T08:10:22;11.55;64.35
71523;HTU21D;59343;51.102;5.884;2023-03-17T08:12:48;11.63;63.88
71523;HTU21D;59343;51.102;5.884;2023-03-17T08:15:17;11.69;63.50
71523;HTU21D;59343;51.102;5.884;2023-03-17T08:17:43;11.78;63.27
71523;HTU21D;59343;51.102;5.884;2023-03-17T08:20:10;11.93;63.22
71523;HTU21D;59343;51.102;5.884;2023-03-17T08:22:36;12.16;63.01
71523;HTU21D;59343;51.102;5.884;2023-03-17T08:25:03;12.43;62.04
71523;HTU21D;59343;51.102;5.884;2023-03-17T08:27:32;12.66;61.61
71523;HTU21D;59343;51.102;5.884;2023-03-17T08:29:58;12.82;60.92
71523;HTU21D;59343;51.102;5.884;2023-03-17T08:32:24;13.01;60.40
71523;HTU21D;59343;51.102;5.884;2023-03-17T08:34:53;13.34;60.82
71523;HTU21D;59343;51.102;5.884;2023-03-17T08:37:20;13.89;62.31
71523;HTU21D;59343;51.102;5.884;2023-03-17T08:39:47;14.67;60.41
71523;HTU21D;59343;51.102;5.884;2023-03-17T08:42:12;15.33;56.26
71523;HTU21D;59343;51.102;5.884;2023-03-17T08:44:38;15.76;54.42
71523;HTU21D;59343;51.102;5.884;2023-03-17T08:47:04;16.20;53.47
71523;HTU21D;59343;51.102;5.884;2023-03-17T08:49:30;16.52;52.37
71523;HTU21D;59343;51.102;5.884;2023-03-17T08:51:59;16.77;51.40
71523;HTU21D;59343;51.102;5.884;2023-03-17T08:54:26;17.02;51.08
71523;HTU21D;59343;51.102;5.884;2023-03-17T08:56:52;17.23;50.64
71523;HTU21D;59343;51.102;5.884;2023-03-17T08:59:18;17.49;50.18
71523;HTU21D;59343;51.102;5.884;2023-03-17T09:01:44;17.60;49.60
71523;HTU21D;59343;51.102;5.884;2023-03-17T09:04:10;17.72;49.10
71523;HTU21D;59343;51.102;5.884;2023-03-17T09:06:36;17.73;48.87
71523;HTU21D;59343;51.102;5.884;2023-03-17T09:09:02;17.90;48.90
71523;HTU21D;59343;51.102;5.884;2023-03-17T09:11:29;18.19;48.86
71523;HTU21D;59343;51.102;5.884;2023-03-17T09:13:57;18.53;48.00
71523;HTU21D;59343;51.102;5.884;2023-03-17T09:16:24;18.76;46.80
71523;HTU21D;59343;51.102;5.884;2023-03-17T09:18:51;18.69;46.05
71523;HTU21D;59343;51.102;5.884;2023-03-17T09:21:17;18.54;46.71
71523;HTU21D;59343;51.102;5.884;2023-03-17T09:23:43;18.48;47.40
71523;HTU21D;59343;51.102;5.884;2023-03-17T09:26:10;18.55;48.51
71523;HTU21D;59343;51.102;5.884;2023-03-17T09:28:39;18.74;48.52
71523;HTU21D;59343;51.102;5.884;2023-03-17T09:31:05;19.05;47.83
71523;HTU21D;59343;51.102;5.884;2023-03-17T09:33:37;19.31;47.18
71523;HTU21D;59343;51.102;5.884;2023-03-17T09:36:03;19.48;46.76
71523;HTU21D;59343;51.102;5.884;2023-03-17T09:38:29;19.62;45.90
71523;HTU21D;59343;51.102;5.884;2023-03-17T09:43:38;19.96;43.60
71523;HTU21D;59343;51.102;5.884;2023-03-17T09:46:25;19.94;42.49
71523;HTU21D;59343;51.102;5.884;2023-03-17T09:49:05;19.75;42.79
71523;HTU21D;59343;51.102;5.884;2023-03-17T09:51:32;19.82;43.32
71523;HTU21D;59343;51.102;5.884;2023-03-17T09:54:03;20.11;42.36
71523;HTU21D;59343;51.102;5.884;2023-03-17T09:56:33;20.20;41.70
71523;HTU21D;59343;51.102;5.884;2023-03-17T09:59:28;20.00;41.60
71523;HTU21D;59343;51.102;5.884;2023-03-17T10:01:55;19.63;42.23
71523;HTU21D;59343;51.102;5.884;2023-03-17T10:04:22;19.38;42.93
71523;HTU21D;59343;51.102;5.884;2023-03-17T10:06:50;19.29;43.49
71523;HTU21D;59343;51.102;5.884;2023-03-17T10:11:57;19.77;43.03
71523;HTU21D;59343;51.102;5.884;2023-03-17T10:14:53;20.10;42.58
71523;HTU21D;59343;51.102;5.884;2023-03-17T10:17:46;20.02;42.38
71523;HTU21D;59343;51.102;5.884;2023-03-17T10:20:26;19.82;42.67
71523;HTU21D;59343;51.102;5.884;2023-03-17T10:23:05;19.75;43.47
71523;HTU21D;59343;51.102;5.884;2023-03-17T10:25:34;19.87;43.91
71523;HTU21D;59343;51.102;5.884;2023-03-17T10:30:38;19.99;43.57
71523;HTU21D;59343;51.102;5.884;2023-03-17T10:33:05;20.12;43.14
71523;HTU21D;59343;51.102;5.884;2023-03-17T10:35:35;20.13;42.48
71523;HTU21D;59343;51.102;5.884;2023-03-17T10:38:16;19.97;42.47
71523;HTU21D;59343;51.102;5.884;2023-03-17T10:40:44;19.73;42.67
71523;HTU21D;59343;51.102;5.884;2023-03-17T10:43:19;19.54;43.00
71523;HTU21D;59343;51.102;5.884;2023-03-17T10:45:56;19.32;43.61
71523;HTU21D;59343;51.102;5.884;2023-03-17T10:48:22;19.23;43.83
71523;HTU21D;59343;51.102;5.884;2023-03-17T10:50:49;19.24;43.82
71523;HTU21D;59343;51.102;5.884;2023-03-17T10:53:21;19.17;43.95
71523;HTU21D;59343;51.102;5.884;2023-03-17T10:56:05;19.12;43.99
71523;HTU21D;59343;51.102;5.884;2023-03-17T10:58:47;19.01;44.13
71523;HTU21D;59343;51.102;5.884;2023-03-17T11:01:27;19.01;44.32
71523;HTU21D;59343;51.102;5.884;2023-03-17T11:03:54;19.12;44.60
71523;HTU21D;59343;51.102;5.884;2023-03-17T11:06:32;19.44;45.00
71523;HTU21D;59343;51.102;5.884;2023-03-17T11:09:10;19.69;44.53
71523;HTU21D;59343;51.102;5.884;2023-03-17T11:11:44;19.75;43.36
71523;HTU21D;59343;51.102;5.884;2023-03-17T11:14:13;19.74;43.76
71523;HTU21D;59343;51.102;5.884;2023-03-17T11:16:56;19.82;43.68
71523;HTU21D;59343;51.102;5.884;2023-03-17T11:22:33;20.13;43.42
71523;HTU21D;59343;51.102;5.884;2023-03-17T11:25:15;20.22;43.30
71523;HTU21D;59343;51.102;5.884;2023-03-17T11:33:52;20.25;42.93
71523;HTU21D;59343;51.102;5.884;2023-03-17T11:46:59;20.49;43.51
71523;HTU21D;59343;51.102;5.884;2023-03-17T11:49:38;20.40;43.43
71523;HTU21D;59343;51.102;5.884;2023-03-17T11:54:50;20.36;43.63
71523;HTU21D;59343;51.102;5.884;2023-03-17T11:57:51;20.42;43.78
71523;HTU21D;59343;51.102;5.884;2023-03-17T12:00:32;20.50;43.77
71523;HTU21D;59343;51.102;5.884;2023-03-17T12:03:39;20.55;43.82
71523;HTU21D;59343;51.102;5.884;2023-03-17T12:06:30;20.60;43.88
71523;HTU21D;59343;51.102;5.884;2023-03-17T12:11:54;20.65;44.03
71523;HTU21D;59343;51.102;5.884;2023-03-17T12:14:37;20.74;44.00
71523;HTU21D;59343;51.102;5.884;2023-03-17T12:22:35;20.75;43.87
71523;HTU21D;59343;51.102;5.884;2023-03-17T12:25:19;20.78;43.87
71523;HTU21D;59343;51.102;5.884;2023-03-17T12:28:11;20.83;43.56
71523;HTU21D;59343;51.102;5.884;2023-03-17T12:37:19;20.64;43.83
71523;HTU21D;59343;51.102;5.884;2023-03-17T12:40:09;20.63;43.52
71523;HTU21D;59343;51.102;5.884;2023-03-17T12:42:50;20.61;43.82
71523;HTU21D;59343;51.102;5.884;2023-03-17T12:53:41;20.71;43.32
71523;HTU21D;59343;51.102;5.884;2023-03-17T12:56:23;20.70;43.64
71523;HTU21D;59343;51.102;5.884;2023-03-17T12:59:13;20.76;43.96
71523;HTU21D;59343;51.102;5.884;2023-03-17T13:01:55;20.77;43.96
71523;HTU21D;59343;51.102;5.884;2023-03-17T13:04:29;20.84;43.77
71523;HTU21D;59343;51.102;5.884;2023-03-17T13:08:08;20.80;43.49
71523;HTU21D;59343;51.102;5.884;2023-03-17T13:10:12;20.75;43.63
71523;HTU21D;59343;51.102;5.884;2023-03-17T13:20:40;20.80;44.32
71523;HTU21D;59343;51.102;5.884;2023-03-17T13:31:09;21.19;44.56
71523;HTU21D;59343;51.102;5.884;2023-03-17T13:33:43;21.24;44.45
71523;HTU21D;59343;51.102;5.884;2023-03-17T13:39:32;21.36;44.72
71523;HTU21D;59343;51.102;5.884;2023-03-17T13:48:36;21.73;46.07
71523;HTU21D;59343;51.102;5.884;2023-03-17T13:51:23;21.82;46.83
71523;HTU21D;59343;51.102;5.884;2023-03-17T13:53:51;21.92;46.55
71523;HTU21D;59343;51.102;5.884;2023-03-17T14:01:39;22.28;45.50
71523;HTU21D;59343;51.102;5.884;2023-03-17T14:04:18;22.37;45.51
71523;HTU21D;59343;51.102;5.884;2023-03-17T14:06:47;22.41;45.32
71523;HTU21D;59343;51.102;5.884;2023-03-17T14:09:34;22.40;45.11
71523;HTU21D;59343;51.102;5.884;2023-03-17T14:12:12;22.36;44.74
71523;HTU21D;59343;51.102;5.884;2023-03-17T14:14:49;22.27;43.76
71523;HTU21D;59343;51.102;5.884;2023-03-17T14:17:43;22.13;42.87
71523;HTU21D;59343;51.102;5.884;2023-03-17T14:22:39;22.05;41.68
71523;HTU21D;59343;51.102;5.884;2023-03-17T14:25:18;21.97;41.33
71523;HTU21D;59343;51.102;5.884;2023-03-17T14:27:51;21.89;41.28
71523;HTU21D;59343;51.102;5.884;2023-03-17T14:30:29;21.74;41.25
71523;HTU21D;59343;51.102;5.884;2023-03-17T14:33:03;21.65;41.49
71523;HTU21D;59343;51.102;5.884;2023-03-17T14:35:35;21.59;41.67
71523;HTU21D;59343;51.102;5.884;2023-03-17T14:38:33;21.51;41.90
71523;HTU21D;59343;51.102;5.884;2023-03-17T14:41:03;21.44;42.04
71523;HTU21D;59343;51.102;5.884;2023-03-17T14:43:31;21.37;42.41
71523;HTU21D;59343;51.102;5.884;2023-03-17T14:46:03;21.29;42.59
71523;HTU21D;59343;51.102;5.884;2023-03-17T14:48:34;21.19;42.61
71523;HTU21D;59343;51.102;5.884;2023-03-17T14:53:45;21.07;42.99
71523;HTU21D;59343;51.102;5.884;2023-03-17T14:56:12;21.01;43.12
71523;HTU21D;59343;51.102;5.884;2023-03-17T14:58:47;20.91;43.40
71523;HTU21D;59343;51.102;5.884;2023-03-17T15:01:37;20.91;43.35
71523;HTU21D;59343;51.102;5.884;2023-03-17T15:04:14;20.83;43.33
71523;HTU21D;59343;51.102;5.884;2023-03-17T15:06:51;20.78;43.52
71523;HTU21D;59343;51.102;5.884;2023-03-17T15:11:55;20.71;43.81
71523;HTU21D;59343;51.102;5.884;2023-03-17T15:14:42;20.69;43.75
71523;HTU21D;59343;51.102;5.884;2023-03-17T15:17:18;20.60;43.94
71523;HTU21D;59343;51.102;5.884;2023-03-17T15:19:50;20.55;43.91
71523;HTU21D;59343;51.102;5.884;2023-03-17T15:22:24;20.47;44.00
71523;HTU21D;59343;51.102;5.884;2023-03-17T15:27:43;20.31;43.71
71523;HTU21D;59343;51.102;5.884;2023-03-17T15:30:11;20.27;43.90
71523;HTU21D;59343;51.102;5.884;2023-03-17T15:32:38;20.20;44.15
71523;HTU21D;59343;51.102;5.884;2023-03-17T15:35:05;20.17;44.36
71523;HTU21D;59343;51.102;5.884;2023-03-17T15:37:36;20.12;44.38
71523;HTU21D;59343;51.102;5.884;2023-03-17T15:40:15;20.09;44.48
71523;HTU21D;59343;51.102;5.884;2023-03-17T15:42:41;20.02;44.58
71523;HTU21D;59343;51.102;5.884;2023-03-17T15:45:09;19.97;44.64
71523;HTU21D;59343;51.102;5.884;2023-03-17T15:47:36;19.89;44.91
71523;HTU21D;59343;51.102;5.884;2023-03-17T15:50:26;19.83;45.03
71523;HTU21D;59343;51.102;5.884;2023-03-17T16:00:58;19.60;45.29
71523;HTU21D;59343;51.102;5.884;2023-03-17T16:12:59;19.32;46.28
71523;HTU21D;59343;51.102;5.884;2023-03-17T16:20:47;19.11;46.35
71523;HTU21D;59343;51.102;5.884;2023-03-17T16:27:25;18.93;46.43
71523;HTU21D;59343;51.102;5.884;2023-03-17T16:30:33;18.77;46.54
71523;HTU21D;59343;51.102;5.884;2023-03-17T16:33:43;18.64;46.98
71523;HTU21D;59343;51.102;5.884;2023-03-17T16:41:34;18.48;47.48
71523;HTU21D;59343;51.102;5.884;2023-03-17T16:45:37;18.39;47.64
71523;HTU21D;59343;51.102;5.884;2023-03-17T16:48:03;18.36;47.80
71523;HTU21D;59343;51.102;5.884;2023-03-17T16:50:35;18.30;48.18
71523;HTU21D;59343;51.102;5.884;2023-03-17T16:53:07;18.26;48.18
71523;HTU21D;59343;51.102;5.884;2023-03-17T16:56:16;18.21;48.10
71523;HTU21D;59343;51.102;5.884;2023-03-17T16:58:44;18.18;47.83
71523;HTU21D;59343;51.102;5.884;2023-03-17T17:01:43;18.06;47.69
71523;HTU21D;59343;51.102;5.884;2023-03-17T17:04:09;17.96;47.70
71523;HTU21D;59343;51.102;5.884;2023-03-17T17:06:56;17.91;47.69
71523;HTU21D;59343;51.102;5.884;2023-03-17T17:09:36;17.88;47.72
71523;HTU21D;59343;51.102;5.884;2023-03-17T17:12:02;17.87;47.78
71523;HTU21D;59343;51.102;5.884;2023-03-17T17:14:32;17.82;47.89
71523;HTU21D;59343;51.102;5.884;2023-03-17T17:16:58;17.80;47.99
71523;HTU21D;59343;51.102;5.884;2023-03-17T17:19:25;17.78;48.06
71523;HTU21D;59343;51.102;5.884;2023-03-17T17:22:00;17.69;48.41
71523;HTU21D;59343;51.102;5.884;2023-03-17T17:24:26;17.66;48.47
71523;HTU21D;59343;51.102;5.884;2023-03-17T17:26:55;17.63;48.59
71523;HTU21D;59343;51.102;5.884;2023-03-17T17:29:21;17.58;48.70
71523;HTU21D;59343;51.102;5.884;2023-03-17T17:31:47;17.55;48.73
71523;HTU21D;59343;51.102;5.884;2023-03-17T17:34:16;17.55;48.70
71523;HTU21D;59343;51.102;5.884;2023-03-17T17:36:45;17.51;48.77
71523;HTU21D;59343;51.102;5.884;2023-03-17T17:39:12;17.47;49.14
71523;HTU21D;59343;51.102;5.884;2023-03-17T17:41:44;17.44;49.35
71523;HTU21D;59343;51.102;5.884;2023-03-17T17:44:13;17.43;49.46
71523;HTU21D;59343;51.102;5.884;2023-03-17T17:46:47;17.40;49.66
71523;HTU21D;59343;51.102;5.884;2023-03-17T17:49:16;17.38;49.85
71523;HTU21D;59343;51.102;5.884;2023-03-17T17:51:52;17.34;49.87
71523;HTU21D;59343;51.102;5.884;2023-03-17T17:54:20;17.28;49.89
71523;HTU21D;59343;51.102;5.884;2023-03-17T17:56:47;17.24;50.06